createdAt,value
2017-10-27T00:02:04.858Z,98.00
2017-10-27T00:04:30.936Z,98.10
2017-10-27T00:06:57.101Z,98.60
2017-10-27T00:09:23.167Z,99.40
2017-10-27T00:11:49.256Z,98.50
2017-10-27T00:14:15.345Z,98.60
2017-10-27T00:16:41.404Z,99.30
2017-10-27T00:19:07.500Z,98.80
2017-10-27T00:21:34.396Z,98.60
2017-10-27T00:24:00.488Z,98.50
2017-10-27T00:26:27.304Z,98.70
2017-10-27T00:28:53.405Z,98.70
2017-10-27T00:31:26.385Z,99.00
2017-10-27T00:33:52.564Z,99.70
2017-10-27T00:36:18.640Z,99.60
2017-10-27T00:38:44.917Z,99.90
2017-10-27T00:41:11.063Z,99.90
2017-10-27T00:43:37.212Z,99.90
2017-10-27T00:46:04.163Z,99.90
2017-10-27T00:48:30.257Z,99.40
2017-10-27T00:50:56.361Z,99.30
2017-10-27T00:53:22.425Z,97.80
2017-10-27T00:55:48.552Z,97.70
2017-10-27T00:58:14.688Z,98.50
2017-10-27T01:00:40.766Z,98.10
2017-10-27T01:03:07.626Z,97.50
2017-10-27T01:05:33.768Z,97.50
2017-10-27T01:08:00.576Z,97.50
2017-10-27T01:10:26.673Z,97.50
2017-10-27T01:12:52.772Z,97.30
2017-10-27T01:15:18.865Z,96.30
2017-10-27T01:17:45.036Z,97.10
2017-10-27T01:20:11.136Z,96.60
2017-10-27T01:22:37.324Z,96.90
2017-10-27T01:25:03.517Z,96.50
2017-10-27T01:27:29.587Z,97.50
2017-10-27T01:29:55.668Z,95.80
2017-10-27T01:32:21.745Z,95.00
2017-10-27T01:34:47.829Z,95.30
2017-10-27T01:37:14.644Z,95.10
2017-10-27T01:39:40.748Z,95.10
2017-10-27T01:42:06.887Z,95.50
2017-10-27T01:44:32.970Z,96.70
2017-10-27T01:46:59.033Z,97.70
2017-10-27T01:49:25.860Z,96.70
2017-10-27T01:51:51.948Z,95.90
2017-10-27T01:54:18.008Z,94.90
2017-10-27T01:56:44.114Z,94.50
2017-10-27T01:59:10.258Z,95.10
2017-10-27T02:01:36.360Z,94.40
2017-10-27T02:04:02.458Z,93.70
2017-10-27T02:06:28.528Z,93.50
2017-10-27T02:08:54.584Z,94.60
2017-10-27T02:11:21.475Z,92.60
2017-10-27T02:13:47.557Z,92.60
2017-10-27T02:16:13.634Z,93.00
2017-10-27T02:18:39.726Z,92.70
2017-10-27T02:21:05.814Z,92.70
2017-10-27T02:23:31.888Z,92.80
2017-10-27T02:25:57.999Z,93.40
2017-10-27T02:28:24.226Z,93.50
2017-10-27T02:30:50.297Z,93.20
2017-10-27T02:33:16.413Z,92.20
2017-10-27T02:35:42.566Z,91.80
2017-10-27T02:38:08.677Z,92.70
2017-10-27T02:40:34.819Z,91.60
2017-10-27T02:43:00.912Z,91.10
2017-10-27T02:45:27.001Z,91.10
2017-10-27T02:47:53.113Z,92.00
2017-10-27T02:50:19.961Z,91.70
2017-10-27T02:52:46.765Z,93.60
2017-10-27T02:55:12.876Z,93.60
2017-10-27T02:57:38.952Z,93.80
2017-10-27T03:00:05.045Z,94.10
2017-10-27T03:02:31.154Z,93.70
2017-10-27T03:04:57.979Z,94.80
2017-10-27T03:07:24.118Z,94.80
2017-10-27T03:09:50.220Z,94.40
2017-10-27T03:12:16.299Z,94.40
2017-10-27T03:14:42.409Z,93.50
2017-10-27T03:17:08.492Z,94.10
2017-10-27T03:19:34.568Z,93.80
2017-10-27T03:22:00.676Z,93.90
2017-10-27T03:24:27.503Z,93.70
2017-10-27T03:26:53.593Z,93.60
2017-10-27T03:29:19.676Z,95.00
2017-10-27T03:31:45.767Z,94.60
2017-10-27T03:34:11.879Z,95.00
2017-10-27T03:36:38.703Z,94.60
2017-10-27T03:39:04.799Z,94.70
2017-10-27T03:41:30.917Z,93.40
2017-10-27T03:43:57.756Z,92.50
2017-10-27T03:46:23.863Z,92.50
2017-10-27T03:48:49.945Z,91.80
2017-10-27T03:51:16.752Z,94.50
2017-10-27T03:53:42.881Z,94.60
2017-10-27T03:56:08.954Z,93.80
2017-10-27T03:58:35.049Z,94.10
2017-10-27T04:01:01.255Z,93.00
2017-10-27T04:03:27.336Z,94.20
2017-10-27T04:05:53.424Z,93.60
2017-10-27T04:08:20.268Z,95.20
2017-10-27T04:10:47.094Z,93.80
2017-10-27T04:13:13.188Z,93.70
2017-10-27T04:15:39.309Z,93.10
2017-10-27T04:18:06.120Z,92.80
2017-10-27T04:20:32.261Z,92.70
2017-10-27T04:22:58.398Z,93.40
2017-10-27T04:25:24.468Z,92.50
2017-10-27T04:27:51.280Z,93.10
2017-10-27T04:30:17.414Z,93.10
2017-10-27T04:32:43.510Z,94.50
2017-10-27T04:35:09.628Z,93.00
2017-10-27T04:37:35.748Z,92.70
2017-10-27T04:40:01.967Z,93.20
2017-10-27T04:42:28.034Z,93.40
2017-10-27T04:44:54.127Z,94.20
2017-10-27T04:47:20.238Z,94.20
2017-10-27T04:49:46.354Z,93.40
2017-10-27T04:52:13.193Z,92.80
2017-10-27T04:54:39.284Z,92.40
2017-10-27T04:57:05.374Z,92.50
2017-10-27T04:59:31.599Z,93.00
2017-10-27T05:01:57.693Z,92.80
2017-10-27T05:04:23.768Z,92.90
2017-10-27T05:06:49.864Z,92.30
2017-10-27T05:09:15.992Z,93.30
2017-10-27T05:11:42.860Z,92.80
2017-10-27T05:14:08.992Z,92.80
2017-10-27T05:16:41.282Z,92.40
2017-10-27T05:19:13.350Z,91.40
2017-10-27T05:21:45.559Z,92.40
2017-10-27T05:24:17.792Z,93.30
2017-10-27T05:26:43.859Z,95.20
2017-10-27T05:29:09.921Z,96.40
2017-10-27T05:31:36.011Z,96.20
2017-10-27T05:34:02.839Z,98.80
2017-10-27T05:36:28.929Z,98.70
2017-10-27T05:38:55.028Z,97.90
2017-10-27T05:41:21.128Z,97.80
2017-10-27T05:43:47.204Z,97.80
2017-10-27T05:46:13.300Z,98.90
2017-10-27T05:48:39.388Z,98.90
2017-10-27T05:51:06.218Z,97.20
2017-10-27T05:53:32.357Z,97.30
2017-10-27T05:55:58.420Z,96.80
2017-10-27T05:58:25.239Z,98.40
2017-10-27T06:00:51.370Z,98.50
2017-10-27T06:03:17.458Z,96.60
2017-10-27T06:05:43.532Z,96.30
2017-10-27T06:08:09.646Z,96.50
2017-10-27T06:10:35.720Z,96.60
2017-10-27T06:13:01.838Z,94.70
2017-10-27T06:15:28.786Z,94.60
2017-10-27T06:17:54.884Z,94.70
2017-10-27T06:20:21.709Z,93.90
2017-10-27T06:22:47.806Z,93.90
2017-10-27T06:25:13.896Z,94.20
2017-10-27T06:27:39.980Z,94.60
2017-10-27T06:30:06.098Z,93.00
2017-10-27T06:32:32.895Z,94.90
2017-10-27T06:34:58.968Z,95.10
2017-10-27T06:37:25.072Z,96.60
2017-10-27T06:39:51.138Z,95.70
2017-10-27T06:42:17.235Z,96.60
2017-10-27T06:44:43.335Z,95.40
2017-10-27T06:47:10.160Z,99.90
2017-10-27T06:49:36.240Z,99.90
2017-10-27T06:52:02.349Z,99.90
2017-10-27T06:54:28.437Z,99.90
2017-10-27T06:56:54.587Z,99.50
2017-10-27T06:59:20.697Z,98.70
2017-10-27T07:01:46.767Z,96.90
2017-10-27T07:04:12.832Z,98.30
2017-10-27T07:06:38.953Z,99.90
2017-10-27T07:09:05.073Z,99.90
2017-10-27T07:11:31.194Z,98.70
2017-10-27T07:13:57.319Z,99.20
2017-10-27T07:16:23.394Z,99.90
2017-10-27T07:18:49.507Z,99.00
2017-10-27T07:21:15.639Z,98.70
2017-10-27T07:23:41.766Z,99.00
2017-10-27T07:26:07.862Z,99.80
2017-10-27T07:28:33.980Z,99.00
2017-10-27T07:31:00.094Z,98.00
2017-10-27T07:33:26.182Z,95.30
2017-10-27T07:35:52.318Z,95.80
2017-10-27T07:38:18.426Z,91.80
2017-10-27T07:40:44.507Z,91.60
2017-10-27T07:43:10.640Z,92.80
2017-10-27T07:45:36.732Z,92.60
2017-10-27T07:48:02.833Z,91.80
2017-10-27T07:50:29.672Z,92.70
2017-10-27T07:52:55.773Z,92.30
2017-10-27T07:55:21.849Z,91.70
2017-10-27T07:57:48.731Z,91.80
2017-10-27T08:00:14.825Z,91.40
2017-10-27T08:02:40.896Z,91.90
2017-10-27T08:05:07.831Z,90.00
2017-10-27T08:07:33.935Z,90.00
2017-10-27T08:10:00.153Z,89.90
2017-10-27T08:12:26.267Z,91.90
2017-10-27T08:14:52.340Z,90.70
2017-10-27T08:17:18.408Z,89.40
2017-10-27T08:19:44.615Z,88.70
2017-10-27T08:22:10.803Z,89.30
2017-10-27T08:24:37.694Z,91.90
2017-10-27T08:27:03.810Z,92.00
2017-10-27T08:29:30.636Z,97.10
2017-10-27T08:31:56.717Z,97.10
2017-10-27T08:34:22.808Z,96.30
2017-10-27T08:36:48.905Z,97.40
2017-10-27T08:39:16.597Z,93.90
2017-10-27T08:41:52.342Z,93.70
2017-10-27T08:44:18.662Z,92.50
2017-10-27T08:46:45.473Z,90.90
2017-10-27T08:49:11.575Z,90.80
2017-10-27T08:51:37.848Z,90.20
2017-10-27T08:54:04.181Z,89.30
2017-10-27T08:56:30.633Z,90.20
2017-10-27T08:58:56.737Z,89.80
2017-10-27T09:01:22.858Z,91.90
2017-10-27T09:03:49.701Z,92.90
2017-10-27T09:06:17.115Z,96.60
2017-10-27T09:08:43.873Z,95.90
2017-10-27T09:11:10.146Z,94.20
2017-10-27T09:13:36.250Z,93.50
2017-10-27T09:16:02.336Z,90.10
2017-10-27T09:18:28.392Z,87.30
2017-10-27T09:20:55.248Z,91.10
2017-10-27T09:23:22.086Z,88.50
2017-10-27T09:25:48.176Z,88.50
2017-10-27T09:28:14.232Z,88.80
2017-10-27T09:30:40.328Z,92.00
2017-10-27T09:33:06.416Z,93.90
2017-10-27T09:35:32.545Z,95.90
2017-10-27T09:37:58.638Z,95.40
2017-10-27T09:40:24.748Z,99.90
2017-10-27T09:42:51.558Z,99.90
2017-10-27T09:45:17.663Z,99.90
2017-10-27T09:47:43.758Z,99.90
2017-10-27T09:50:09.926Z,99.90
2017-10-27T09:52:36.786Z,99.90
2017-10-27T09:55:03.634Z,99.90
2017-10-27T09:57:30.516Z,98.30
2017-10-27T09:59:56.628Z,98.30
2017-10-27T10:02:23.597Z,95.00
2017-10-27T10:04:49.778Z,95.00
2017-10-27T10:07:15.970Z,95.60
2017-10-27T10:09:42.803Z,92.60
2017-10-27T10:12:08.925Z,92.60
2017-10-27T10:14:35.060Z,92.70
2017-10-27T10:17:01.175Z,92.50
2017-10-27T10:19:27.403Z,93.00
2017-10-27T10:21:53.604Z,95.20
2017-10-27T10:24:19.685Z,94.60
2017-10-27T10:26:45.805Z,94.70
2017-10-27T10:29:11.890Z,94.60
2017-10-27T10:31:37.991Z,95.00
2017-10-27T10:34:04.106Z,92.50
2017-10-27T10:36:30.929Z,92.30
2017-10-27T10:38:57.142Z,91.70
2017-10-27T10:41:23.284Z,91.50
2017-10-27T10:43:49.405Z,91.70
2017-10-27T10:46:15.484Z,90.10
2017-10-27T10:48:41.792Z,89.40
2017-10-27T10:51:07.870Z,88.90
2017-10-27T10:53:34.037Z,89.80
2017-10-27T10:56:00.135Z,88.80
2017-10-27T10:58:26.203Z,88.60
2017-10-27T11:00:53.030Z,90.60
2017-10-27T11:03:19.138Z,90.60
2017-10-27T11:05:45.250Z,91.30
2017-10-27T11:08:11.335Z,89.80
2017-10-27T11:10:37.578Z,91.10
2017-10-27T11:13:03.756Z,88.60
2017-10-27T11:15:29.888Z,90.60
2017-10-27T11:17:56.712Z,87.10
2017-10-27T11:20:22.840Z,86.80
2017-10-27T11:22:48.917Z,84.20
2017-10-27T11:25:15.731Z,85.10
2017-10-27T11:27:41.897Z,84.10
2017-10-27T11:30:08.767Z,85.20
2017-10-27T11:32:35.672Z,86.40
2017-10-27T11:35:01.940Z,86.50
2017-10-27T11:37:28.044Z,85.00
2017-10-27T11:39:54.129Z,87.00
2017-10-27T11:42:21.162Z,85.40
2017-10-27T11:44:47.298Z,85.00
2017-10-27T11:47:13.475Z,85.40
2017-10-27T11:49:40.350Z,84.20
2017-10-27T11:52:06.502Z,84.50
2017-10-27T11:54:32.672Z,83.50
2017-10-27T11:56:58.884Z,83.50
2017-10-27T11:59:24.976Z,83.80
2017-10-27T12:01:51.071Z,83.00
2017-10-27T12:04:17.160Z,83.80
2017-10-27T12:06:43.284Z,83.60
2017-10-27T12:09:09.378Z,83.50
2017-10-27T12:11:35.464Z,83.60
2017-10-27T12:14:01.615Z,82.80
2017-10-27T12:16:28.793Z,82.20
2017-10-27T12:18:54.999Z,82.90
2017-10-27T12:21:21.206Z,82.70
2017-10-27T12:23:48.119Z,82.00
2017-10-27T12:26:15.083Z,81.40
2017-10-27T12:28:43.120Z,80.80
2017-10-27T12:31:09.328Z,80.90
2017-10-27T12:33:36.682Z,80.20
2017-10-27T12:36:03.826Z,80.10
2017-10-27T12:38:30.648Z,86.90
2017-10-27T12:40:56.929Z,86.90
2017-10-27T12:43:23.353Z,86.30
2017-10-27T12:45:49.584Z,89.60
2017-10-27T12:48:18.445Z,93.20
2017-10-27T12:50:48.404Z,96.40
2017-10-27T12:53:15.324Z,98.90
2017-10-27T12:55:42.210Z,99.90
2017-10-27T12:58:08.516Z,99.90
2017-10-27T13:00:34.772Z,99.90
2017-10-27T13:03:00.898Z,99.90
2017-10-27T13:05:27.148Z,99.90
2017-10-27T13:07:53.242Z,99.90
2017-10-27T13:10:19.962Z,99.90
2017-10-27T13:12:47.954Z,99.90
2017-10-27T13:15:16.291Z,99.90
2017-10-27T13:17:45.588Z,99.90
2017-10-27T13:20:12.390Z,99.90
2017-10-27T13:22:47.130Z,99.90
2017-10-27T13:25:13.510Z,99.90
2017-10-27T13:27:40.090Z,99.90
2017-10-27T13:30:06.226Z,99.90
2017-10-27T13:32:32.418Z,99.90
2017-10-27T13:34:58.663Z,99.90
2017-10-27T13:37:25.241Z,99.90
2017-10-27T13:39:52.285Z,99.90
2017-10-27T13:42:18.493Z,99.90
2017-10-27T13:44:45.077Z,99.90
2017-10-27T13:47:11.210Z,99.90
2017-10-27T13:49:37.319Z,99.90
2017-10-27T13:52:03.741Z,99.90
2017-10-27T13:54:29.907Z,99.90
2017-10-27T13:56:56.093Z,99.90
2017-10-27T13:59:23.747Z,99.90
2017-10-27T14:01:50.662Z,99.90
2017-10-27T14:04:16.782Z,99.90
2017-10-27T14:06:43.019Z,99.90
2017-10-27T14:09:09.188Z,99.90
2017-10-27T14:11:35.322Z,99.90
2017-10-27T14:14:03.504Z,99.90
2017-10-27T14:16:29.696Z,99.90
2017-10-27T14:18:56.845Z,99.90
2017-10-27T14:21:25.007Z,99.90
2017-10-27T14:23:51.208Z,99.90
2017-10-27T14:26:18.029Z,99.90
2017-10-27T14:28:46.944Z,99.90
2017-10-27T14:31:13.103Z,99.90
2017-10-27T14:33:39.213Z,99.90
2017-10-27T14:36:06.093Z,99.90
2017-10-27T14:38:32.306Z,99.90
2017-10-27T14:40:59.374Z,99.90
2017-10-27T14:43:27.219Z,99.90
2017-10-27T14:45:54.402Z,99.90
2017-10-27T14:48:20.680Z,99.90
2017-10-27T14:50:46.876Z,99.90
2017-10-27T14:53:12.968Z,99.90
2017-10-27T14:55:39.081Z,99.90
2017-10-27T14:58:06.023Z,99.90
2017-10-27T15:00:32.177Z,99.90
2017-10-27T15:02:58.325Z,99.90
2017-10-27T15:05:25.887Z,99.90
2017-10-27T15:07:52.936Z,99.90
2017-10-27T15:10:19.092Z,99.90
2017-10-27T15:12:47.136Z,99.90
2017-10-27T15:15:13.278Z,99.90
2017-10-27T15:17:39.449Z,99.90
2017-10-27T15:20:06.474Z,99.90
2017-10-27T15:22:33.604Z,99.90
2017-10-27T15:24:59.774Z,99.90
2017-10-27T15:27:25.951Z,99.90
2017-10-27T15:29:52.121Z,99.90
2017-10-27T15:32:18.237Z,99.90
2017-10-27T15:34:44.358Z,99.90
2017-10-27T15:37:10.487Z,99.90
2017-10-27T15:39:36.599Z,99.90
2017-10-27T15:42:02.787Z,99.90
2017-10-27T15:44:28.878Z,99.90
2017-10-27T15:46:54.977Z,99.20
2017-10-27T15:49:21.097Z,98.50
2017-10-27T15:51:47.211Z,95.70
2017-10-27T15:54:13.296Z,97.30
2017-10-27T15:56:39.408Z,98.20
2017-10-27T15:59:05.538Z,99.20
2017-10-27T16:01:32.527Z,94.50
2017-10-27T16:03:58.714Z,94.50
2017-10-27T16:06:24.832Z,90.60
2017-10-27T16:08:51.064Z,91.20
2017-10-27T16:11:17.224Z,92.60
2017-10-27T16:13:43.401Z,94.10
2017-10-27T16:16:10.258Z,92.20
2017-10-27T16:18:37.205Z,92.70
2017-10-27T16:21:04.219Z,92.10
2017-10-27T16:23:30.381Z,92.20
2017-10-27T16:25:56.552Z,93.20
2017-10-27T16:28:23.385Z,90.70
2017-10-27T16:30:49.505Z,90.70
2017-10-27T16:33:15.609Z,94.20
2017-10-27T16:35:41.701Z,88.90
2017-10-27T16:38:07.847Z,93.00
2017-10-27T16:40:34.712Z,89.60
2017-10-27T16:43:00.889Z,88.80
2017-10-27T16:45:27.037Z,88.60
2017-10-27T16:47:53.227Z,89.70
2017-10-27T16:50:20.183Z,90.50
2017-10-27T16:52:46.290Z,90.90
2017-10-27T16:55:13.504Z,87.50
2017-10-27T16:57:39.622Z,88.20
2017-10-27T17:00:05.829Z,88.70
2017-10-27T17:02:32.005Z,88.50
2017-10-27T17:04:58.179Z,88.40
2017-10-27T17:07:24.410Z,88.50
2017-10-27T17:09:50.701Z,88.30
2017-10-27T17:12:17.554Z,85.20
2017-10-27T17:14:43.739Z,85.00
2017-10-27T17:17:09.981Z,85.70
2017-10-27T17:19:36.167Z,85.70
2017-10-27T17:22:02.331Z,85.10
2017-10-27T17:24:28.623Z,86.60
2017-10-27T17:26:54.860Z,87.50
2017-10-27T17:29:21.890Z,86.00
2017-10-27T17:31:48.003Z,86.50
2017-10-27T17:34:14.862Z,84.90
2017-10-27T17:36:41.004Z,84.90
2017-10-27T17:39:07.124Z,87.20
2017-10-27T17:41:33.265Z,85.80
2017-10-27T17:44:00.159Z,86.80
2017-10-27T17:46:26.246Z,86.70
2017-10-27T17:48:52.406Z,87.80
2017-10-27T17:51:19.273Z,88.00
2017-10-27T17:53:46.241Z,88.10
2017-10-27T17:56:13.151Z,88.10
2017-10-27T17:58:39.243Z,88.00
2017-10-27T18:01:06.166Z,90.00
2017-10-27T18:03:32.343Z,90.00
2017-10-27T18:05:58.451Z,90.10
2017-10-27T18:08:25.383Z,90.70
2017-10-27T18:10:51.518Z,90.70
2017-10-27T18:13:17.631Z,91.30
2017-10-27T18:15:43.835Z,92.80
2017-10-27T18:18:10.702Z,92.90
2017-10-27T18:20:37.589Z,92.10
2017-10-27T18:23:03.724Z,92.10
2017-10-27T18:25:29.823Z,91.10
2017-10-27T18:27:56.005Z,90.70
2017-10-27T18:30:22.122Z,91.10
2017-10-27T18:32:48.485Z,91.10
2017-10-27T18:35:14.593Z,91.70
2017-10-27T18:37:40.759Z,92.30
2017-10-27T18:40:06.938Z,92.30
2017-10-27T18:42:33.152Z,92.30
2017-10-27T18:44:59.335Z,92.20
2017-10-27T18:47:27.006Z,92.50
2017-10-27T18:49:53.121Z,92.40
2017-10-27T18:52:19.261Z,92.10
2017-10-27T18:54:45.419Z,93.70
2017-10-27T18:57:11.524Z,92.80
2017-10-27T18:59:37.720Z,93.70
2017-10-27T19:02:04.881Z,93.00
2017-10-27T19:04:31.116Z,92.70
2017-10-27T19:06:57.242Z,93.20
2017-10-27T19:09:23.375Z,93.30
2017-10-27T19:11:49.507Z,92.20
2017-10-27T19:14:15.583Z,92.00
2017-10-27T19:16:42.471Z,91.50
2017-10-27T19:19:08.595Z,91.50
2017-10-27T19:21:35.008Z,90.70
2017-10-27T19:24:01.216Z,91.30
2017-10-27T19:26:27.320Z,90.80
2017-10-27T19:28:53.453Z,90.60
2017-10-27T19:31:19.603Z,90.70
2017-10-27T19:33:45.716Z,90.30
2017-10-27T19:36:11.828Z,90.30
2017-10-27T19:38:38.002Z,90.00
2017-10-27T19:41:04.138Z,89.80
2017-10-27T19:43:30.270Z,90.10
2017-10-27T19:45:57.119Z,89.80
2017-10-27T19:48:23.217Z,89.80
2017-10-27T19:50:49.311Z,90.50
2017-10-27T19:53:15.510Z,89.20
2017-10-27T19:55:41.612Z,90.70
2017-10-27T19:58:07.745Z,91.20
2017-10-27T20:00:33.916Z,92.00
2017-10-27T20:02:59.992Z,92.60
2017-10-27T20:05:26.081Z,92.30
2017-10-27T20:07:52.225Z,93.50
2017-10-27T20:10:18.340Z,94.60
2017-10-27T20:12:44.414Z,94.50
2017-10-27T20:15:10.596Z,94.60
2017-10-27T20:17:37.727Z,96.00
2017-10-27T20:20:03.854Z,96.00
2017-10-27T20:22:29.990Z,96.00
2017-10-27T20:24:56.186Z,96.00
2017-10-27T20:27:22.315Z,96.80
2017-10-27T20:29:48.425Z,99.90
2017-10-27T20:32:14.568Z,99.10
2017-10-27T20:34:40.713Z,95.00
2017-10-27T20:37:07.574Z,99.90
2017-10-27T20:39:33.681Z,99.90
2017-10-27T20:41:59.777Z,94.10
2017-10-27T20:44:25.942Z,94.60
2017-10-27T20:46:52.070Z,95.00
2017-10-27T20:49:18.217Z,95.90
2017-10-27T20:51:44.394Z,96.40
2017-10-27T20:54:10.554Z,96.50
2017-10-27T20:56:36.704Z,97.50
2017-10-27T20:59:02.825Z,97.40
2017-10-27T21:01:29.675Z,97.80
2017-10-27T21:03:55.781Z,97.70
2017-10-27T21:06:22.232Z,98.10
2017-10-27T21:08:48.323Z,98.50
2017-10-27T21:11:14.460Z,98.50
2017-10-27T21:13:40.607Z,98.80
2017-10-27T21:16:06.825Z,99.00
2017-10-27T21:18:33.021Z,98.70
2017-10-27T21:20:59.154Z,98.70
2017-10-27T21:23:25.255Z,98.10
2017-10-27T21:25:51.386Z,98.70
2017-10-27T21:28:17.538Z,98.60
2017-10-27T21:30:43.667Z,98.40
2017-10-27T21:33:09.794Z,98.60
2017-10-27T21:35:35.928Z,98.90
2017-10-27T21:38:02.053Z,98.30
2017-10-27T21:40:28.914Z,98.70
2017-10-27T21:42:55.929Z,98.30
2017-10-27T21:45:22.069Z,98.30
2017-10-27T21:47:48.196Z,97.40
2017-10-27T21:50:14.282Z,97.70
2017-10-27T21:52:40.394Z,98.10
2017-10-27T21:55:06.577Z,97.00
2017-10-27T21:57:32.690Z,97.20
2017-10-27T21:59:58.865Z,98.10
2017-10-27T22:02:25.007Z,97.30
2017-10-27T22:04:51.096Z,98.40
2017-10-27T22:07:17.224Z,97.60
2017-10-27T22:09:43.529Z,97.70
2017-10-27T22:12:09.670Z,97.80
2017-10-27T22:14:35.874Z,98.90
2017-10-27T22:17:02.724Z,98.50
2017-10-27T22:19:29.577Z,98.60
2017-10-27T22:21:56.491Z,98.60
2017-10-27T22:24:22.627Z,98.60
2017-10-27T22:26:48.724Z,98.70
2017-10-27T22:29:15.552Z,99.20
2017-10-27T22:31:41.668Z,99.20
2017-10-27T22:34:07.830Z,99.10
2017-10-27T22:36:33.988Z,99.10
2017-10-27T22:39:00.124Z,98.70
2017-10-27T22:41:27.059Z,98.90
2017-10-27T22:43:53.170Z,99.10
2017-10-27T22:46:19.298Z,99.90
2017-10-27T22:48:45.476Z,99.50
2017-10-27T22:51:11.586Z,98.80
2017-10-27T22:53:38.718Z,99.80
2017-10-27T22:56:04.854Z,98.60
2017-10-27T22:58:30.986Z,98.60
2017-10-27T23:00:57.860Z,97.80
2017-10-27T23:03:23.979Z,97.80
2017-10-27T23:05:53.030Z,98.10
2017-10-27T23:08:19.998Z,98.50
2017-10-27T23:10:46.072Z,97.00
2017-10-27T23:13:12.923Z,97.50
2017-10-27T23:15:39.785Z,97.50
2017-10-27T23:18:06.632Z,97.00
2017-10-27T23:20:33.575Z,96.90
2017-10-27T23:22:59.724Z,96.90
2017-10-27T23:25:26.557Z,97.10
2017-10-27T23:27:52.667Z,97.30
2017-10-27T23:30:18.795Z,96.90
2017-10-27T23:32:44.923Z,96.40
2017-10-27T23:35:11.045Z,97.50
2017-10-27T23:37:37.921Z,97.50
2017-10-27T23:40:04.144Z,97.40
2017-10-27T23:42:31.027Z,97.60
2017-10-27T23:44:57.222Z,97.60
2017-10-27T23:47:24.053Z,98.30
2017-10-27T23:49:50.142Z,98.20
2017-10-27T23:52:16.240Z,98.00
2017-10-27T23:54:42.459Z,97.80
2017-10-27T23:57:08.554Z,98.20
2017-10-27T23:59:34.686Z,97.30
